createdAt,value
2017-08-12T00:00:08.269Z,92.70
2017-08-12T00:02:34.377Z,92.80
2017-08-12T00:05:00.522Z,92.80
2017-08-12T00:07:27.716Z,92.60
2017-08-12T00:09:53.832Z,92.50
2017-08-12T00:12:19.941Z,92.70
2017-08-12T00:14:46.788Z,92.40
2017-08-12T00:17:12.906Z,92.30
2017-08-12T00:19:39.792Z,92.60
2017-08-12T00:22:05.904Z,92.60
2017-08-12T00:24:32.005Z,92.40
2017-08-12T00:26:59.142Z,92.80
2017-08-12T00:29:25.992Z,92.50
2017-08-12T00:31:52.858Z,92.40
2017-08-12T00:34:19.001Z,92.40
2017-08-12T00:36:45.113Z,92.70
2017-08-12T00:39:11.217Z,92.70
2017-08-12T00:41:38.109Z,92.80
2017-08-12T00:44:04.231Z,92.80
2017-08-12T00:46:30.360Z,93.20
2017-08-12T00:48:56.792Z,92.80
2017-08-12T00:51:22.916Z,92.80
2017-08-12T00:53:49.067Z,92.70
2017-08-12T00:56:15.209Z,92.70
2017-08-12T00:58:42.082Z,93.00
2017-08-12T01:01:08.225Z,92.90
2017-08-12T01:03:34.351Z,93.10
2017-08-12T01:06:00.465Z,92.80
2017-08-12T01:08:26.600Z,93.10
2017-08-12T01:10:52.716Z,93.00
2017-08-12T01:13:18.828Z,93.10
2017-08-12T01:15:44.969Z,93.40
2017-08-12T01:18:11.079Z,93.40
2017-08-12T01:20:37.310Z,93.20
2017-08-12T01:23:03.676Z,93.20
2017-08-12T01:25:29.783Z,93.30
2017-08-12T01:27:55.891Z,93.40
2017-08-12T01:30:22.043Z,93.60
2017-08-12T01:32:48.143Z,93.40
2017-08-12T01:35:14.865Z,93.60
2017-08-12T01:37:41.011Z,93.70
2017-08-12T01:40:07.125Z,93.90
2017-08-12T01:42:33.251Z,93.70
2017-08-12T01:44:59.387Z,93.80
2017-08-12T01:47:25.528Z,93.70
2017-08-12T01:49:51.662Z,93.70
2017-08-12T01:52:18.061Z,93.90
2017-08-12T01:54:44.185Z,94.10
2017-08-12T01:57:10.309Z,93.90
2017-08-12T01:59:36.688Z,93.90
2017-08-12T02:02:02.862Z,94.00
2017-08-12T02:04:28.992Z,93.80
2017-08-12T02:06:55.372Z,93.90
2017-08-12T02:09:21.493Z,93.90
2017-08-12T02:11:47.601Z,93.80
2017-08-12T02:14:13.724Z,94.00
2017-08-12T02:16:39.833Z,94.10
2017-08-12T02:19:06.217Z,93.80
2017-08-12T02:21:32.364Z,93.80
2017-08-12T02:23:59.236Z,94.00
2017-08-12T02:26:25.388Z,93.80
2017-08-12T02:28:51.532Z,93.80
2017-08-12T02:31:17.660Z,93.70
2017-08-12T02:33:44.093Z,93.90
2017-08-12T02:36:10.233Z,93.60
2017-08-12T02:38:36.367Z,93.80
2017-08-12T02:41:03.259Z,93.90
2017-08-12T02:43:29.403Z,93.70
2017-08-12T02:45:55.536Z,93.50
2017-08-12T02:48:21.693Z,93.80
2017-08-12T02:50:48.557Z,93.60
2017-08-12T02:53:14.683Z,93.50
2017-08-12T02:55:40.849Z,93.50
2017-08-12T02:58:06.961Z,93.60
2017-08-12T03:00:33.105Z,93.90
2017-08-12T03:02:59.406Z,93.60
2017-08-12T03:05:25.527Z,93.70
2017-08-12T03:07:51.656Z,93.80
2017-08-12T03:10:17.817Z,93.80
2017-08-12T03:12:43.936Z,93.70
2017-08-12T03:15:10.085Z,93.90
2017-08-12T03:17:36.236Z,93.90
2017-08-12T03:20:03.110Z,93.90
2017-08-12T03:22:29.239Z,93.90
2017-08-12T03:24:55.388Z,93.90
2017-08-12T03:27:21.488Z,93.90
2017-08-12T03:29:47.608Z,94.00
2017-08-12T03:32:13.748Z,93.90
2017-08-12T03:34:39.897Z,93.90
2017-08-12T03:37:06.012Z,93.80
2017-08-12T03:39:32.144Z,93.90
2017-08-12T03:41:58.278Z,93.90
2017-08-12T03:44:24.411Z,93.90
2017-08-12T03:46:50.568Z,94.00
2017-08-12T03:49:16.697Z,93.90
2017-08-12T03:51:42.829Z,93.90
2017-08-12T03:54:08.993Z,93.80
2017-08-12T03:56:35.105Z,93.80
2017-08-12T03:59:01.245Z,93.90
2017-08-12T04:01:27.628Z,93.90
2017-08-12T04:03:53.754Z,93.90
2017-08-12T04:06:19.878Z,94.00
2017-08-12T04:08:46.042Z,94.10
2017-08-12T04:11:12.159Z,93.90
2017-08-12T04:13:38.280Z,93.90
2017-08-12T04:16:04.585Z,93.90
2017-08-12T04:18:30.718Z,94.00
2017-08-12T04:20:56.896Z,93.90
2017-08-12T04:23:23.072Z,93.90
2017-08-12T04:25:49.221Z,94.00
2017-08-12T04:28:15.348Z,93.80
2017-08-12T04:30:41.800Z,93.70
2017-08-12T04:33:07.923Z,93.90
2017-08-12T04:35:34.049Z,93.80
2017-08-12T04:38:00.191Z,93.70
2017-08-12T04:40:26.334Z,93.70
2017-08-12T04:42:52.447Z,93.80
2017-08-12T04:45:18.593Z,93.70
2017-08-12T04:47:45.466Z,93.70
2017-08-12T04:50:11.580Z,93.70
2017-08-12T04:52:37.949Z,93.90
2017-08-12T04:55:04.060Z,93.90
2017-08-12T04:57:30.181Z,93.70
2017-08-12T04:59:56.340Z,93.70
2017-08-12T05:02:22.518Z,93.80
2017-08-12T05:04:48.660Z,93.90
2017-08-12T05:07:14.805Z,93.70
2017-08-12T05:09:40.916Z,93.70
2017-08-12T05:12:07.045Z,93.50
2017-08-12T05:14:33.166Z,93.30
2017-08-12T05:16:59.291Z,93.30
2017-08-12T05:19:25.701Z,93.30
2017-08-12T05:21:51.838Z,93.10
2017-08-12T05:24:17.964Z,93.30
2017-08-12T05:26:44.080Z,93.40
2017-08-12T05:29:10.221Z,93.40
2017-08-12T05:31:36.344Z,93.40
2017-08-12T05:34:02.472Z,93.50
2017-08-12T05:36:28.627Z,93.50
2017-08-12T05:38:54.744Z,93.60
2017-08-12T05:41:20.878Z,93.70
2017-08-12T05:43:47.058Z,93.50
2017-08-12T05:46:13.186Z,93.70
2017-08-12T05:48:40.273Z,93.70
2017-08-12T05:51:06.409Z,93.90
2017-08-12T05:53:32.542Z,93.80
2017-08-12T05:55:58.689Z,93.90
2017-08-12T05:58:25.568Z,93.80
2017-08-12T06:00:51.703Z,93.80
2017-08-12T06:03:18.526Z,93.70
2017-08-12T06:05:45.266Z,93.90
2017-08-12T06:08:12.933Z,93.90
2017-08-12T06:10:39.690Z,93.80
2017-08-12T06:13:06.654Z,94.00
2017-08-12T06:15:33.501Z,94.00
2017-08-12T06:18:01.001Z,93.90
2017-08-12T06:20:27.551Z,93.70
2017-08-12T06:22:54.301Z,93.60
2017-08-12T06:25:21.190Z,93.60
2017-08-12T06:27:47.712Z,93.60
2017-08-12T06:30:14.125Z,93.70
2017-08-12T06:32:40.635Z,93.40
2017-08-12T06:35:07.010Z,93.40
2017-08-12T06:37:33.184Z,93.30
2017-08-12T06:39:59.325Z,93.20
2017-08-12T06:42:25.795Z,93.40
2017-08-12T06:44:51.910Z,93.20
2017-08-12T06:47:18.046Z,93.00
2017-08-12T06:49:44.198Z,93.00
2017-08-12T06:52:10.317Z,92.50
2017-08-12T06:54:36.437Z,92.40
2017-08-12T06:57:02.604Z,92.70
2017-08-12T06:59:28.716Z,92.80
2017-08-12T07:01:55.588Z,92.90
2017-08-12T07:04:22.781Z,92.90
2017-08-12T07:06:49.857Z,92.90
2017-08-12T07:09:16.033Z,93.10
2017-08-12T07:11:42.165Z,93.10
2017-08-12T07:14:08.285Z,92.90
2017-08-12T07:16:34.419Z,92.90
2017-08-12T07:19:00.557Z,93.20
2017-08-12T07:21:26.673Z,93.40
2017-08-12T07:23:52.897Z,93.20
2017-08-12T07:26:19.787Z,93.20
2017-08-12T07:28:45.908Z,93.00
2017-08-12T07:31:12.815Z,93.00
2017-08-12T07:33:38.966Z,93.00
2017-08-12T07:36:05.861Z,93.40
2017-08-12T07:38:32.020Z,93.10
2017-08-12T07:40:58.296Z,93.20
2017-08-12T07:43:24.431Z,92.90
2017-08-12T07:45:50.675Z,93.20
2017-08-12T07:48:16.793Z,93.10
2017-08-12T07:50:42.975Z,92.80
2017-08-12T07:53:09.868Z,92.90
2017-08-12T07:55:35.994Z,92.90
2017-08-12T07:58:02.152Z,93.00
2017-08-12T08:00:28.296Z,93.20
2017-08-12T08:02:55.164Z,93.30
2017-08-12T08:05:21.741Z,93.30
2017-08-12T08:07:48.176Z,93.50
2017-08-12T08:10:14.298Z,93.60
2017-08-12T08:12:40.425Z,94.10
2017-08-12T08:15:06.608Z,94.00
2017-08-12T08:17:32.748Z,94.20
2017-08-12T08:19:58.875Z,94.20
2017-08-12T08:22:25.332Z,94.20
2017-08-12T08:24:51.457Z,94.30
2017-08-12T08:27:17.840Z,94.70
2017-08-12T08:29:44.735Z,94.60
2017-08-12T08:32:10.913Z,94.60
2017-08-12T08:34:37.394Z,94.40
2017-08-12T08:37:03.505Z,94.40
2017-08-12T08:39:29.643Z,94.20
2017-08-12T08:41:55.791Z,94.30
2017-08-12T08:44:21.921Z,94.20
2017-08-12T08:46:48.058Z,94.30
2017-08-12T08:49:14.946Z,94.50
2017-08-12T08:51:41.065Z,94.30
2017-08-12T08:54:07.201Z,94.10
2017-08-12T08:56:33.381Z,94.20
2017-08-12T08:59:00.250Z,94.70
2017-08-12T09:01:26.374Z,94.50
2017-08-12T09:03:52.744Z,94.50
2017-08-12T09:06:19.293Z,94.40
2017-08-12T09:08:45.412Z,94.50
2017-08-12T09:11:11.596Z,94.30
2017-08-12T09:13:37.734Z,94.60
2017-08-12T09:16:03.871Z,94.50
2017-08-12T09:18:30.004Z,94.50
2017-08-12T09:20:56.224Z,94.60
2017-08-12T09:23:22.364Z,95.00
2017-08-12T09:25:48.479Z,95.00
2017-08-12T09:28:14.609Z,94.70
2017-08-12T09:30:40.951Z,94.70
2017-08-12T09:33:07.086Z,94.80
2017-08-12T09:35:33.216Z,94.90
2017-08-12T09:37:59.356Z,95.00
2017-08-12T09:40:26.240Z,95.20
2017-08-12T09:42:52.363Z,95.20
2017-08-12T09:45:18.529Z,95.20
2017-08-12T09:47:44.661Z,95.30
2017-08-12T09:50:10.799Z,95.30
2017-08-12T09:52:36.944Z,95.50
2017-08-12T09:55:03.810Z,95.60
2017-08-12T09:57:29.942Z,95.60
2017-08-12T09:59:56.110Z,95.70
2017-08-12T10:02:22.227Z,95.90
2017-08-12T10:04:48.354Z,95.70
2017-08-12T10:07:14.615Z,95.80
2017-08-12T10:09:41.514Z,95.40
2017-08-12T10:12:07.637Z,95.40
2017-08-12T10:14:33.786Z,95.40
2017-08-12T10:17:00.305Z,95.00
2017-08-12T10:19:26.442Z,95.00
2017-08-12T10:21:52.568Z,94.90
2017-08-12T10:24:18.717Z,94.70
2017-08-12T10:26:44.838Z,94.80
2017-08-12T10:29:11.701Z,94.90
2017-08-12T10:31:37.843Z,94.90
2017-08-12T10:34:03.960Z,94.70
2017-08-12T10:36:30.068Z,95.00
2017-08-12T10:38:56.214Z,95.10
2017-08-12T10:41:22.536Z,94.90
2017-08-12T10:43:48.662Z,94.50
2017-08-12T10:49:06.906Z,94.30
2017-08-12T11:05:48.089Z,94.20
2017-08-12T12:37:23.267Z,93.60
2017-08-12T12:39:51.008Z,93.50
